الصفحة الرئيسية
METAR-TAF:

METAR-TAF

مطار :

مطار تشنغدو شوانغليو الدولي

تشنغدو, جمهورية الصين الشعبية

دائرة عرض: 30-40N, خط طول: 104-01E, ارتفاع: 508 متر

مراقبة الطقس الحالي

تاريخ ووقت الإصدار 1ساعة و 5 دقيقة قبل الساعة 00:00UTC
رياح هادئة
درجة الحرارة 26°درجة مئوية
الرطوبة 89%
ضغط 1003 hPa
الرؤية: 6000 متر
غيوم متفرقة على ارتفاع 3300 قدم

METAR: ZUUU 240000Z 00000MPS 6000 SCT033 26/24 Q1003 NOSIG

زمن: 09:05 (01:05 UTC)

توقعات

تاريخ ووقت الإصدار 4ساعات و 58 دقيقة قبل الساعة 20:07UTC
التوقعات صالحة من24 الساعة 00 UTC إلى 24 الساعة 24 UTC
ريح 6 عقدة من الشمال/الشمال الشرقي
الرؤية: 5000 متر
غيوم متفرقة على ارتفاع 5000 قدم
غشاء
مؤقت
من 24 الساعة 00 UTC إلى 24 الساعة 04 UTC
غيوم قليلة على ارتفاع 3000 قدم, مزنة ركامية.
غيوم متفرقة على ارتفاع 3000 قدم
زخات من الأمطار الخفيفة

TAF: ZUUU 232007Z 2400/2424 02003MPS 5000 BR SCT050 TX29/2407Z TN24/2422Z TEMPO 2400/2404 -SHRA FEW030CB SCT030

أرصاد الطقس والتوقعات من أكثر من 4000 مطار (تقارير الطقس للمطار METAR والتنبؤ بالطقس بالمطارTAF).

المحطات المتاحة هي النقط الصفراء والحمراء على الخريطة.

حرك المؤشر فوق النقطة لمعرفة اسم المحطة.

ثم انقر لمعرفة أرصاد وتوقعات الطقس.

لتغيير الخارطة: اضغط على الأزرار الخضراء مع رمز الصليب الأسود للتكبير. على الزر الأخضر مع شرطة للتصغير، أو على الأسهم الخضراء للخرائط المجاورة.


METAR-TAF: